Hauptseite
METAR-TAF:

METAR-TAF

Flughäfen :

Kassel, Deutschland

Flughafen Kassel-Calden

Breite: 51-24N, Länge: 009-23E, Höhe: 277 m

Beobachtung

Neuester Wetterbericht von vor 30 Minuten, um 08:50 UTC
Wind 9 kt aus West, variierte zwischen West/Südwest und Nordwest
Temperatur 17°C
Luftfeuchtigkeit 68%
Luftdruck 1014 hPa
Sichtweite 10 km oder mehr
Aufgelockert bewölkt in der Höhe von 3300 ft

METAR: EDVK 230850Z 28009KT 240V310 9999 SCT033 17/11 Q1014

Zeit: 11:20 (09:20 UTC)

Prognose

Neuester Wetterbericht von vor 1 Stunde und 20 Minuten, um 08:00 UTC
Gültige Prognose vom 23 um 09 UTC bis 23 um 18 UTC
Wind 10 kt aus West/Südwest
Sichtweite 10 km oder mehr
Aufgelockert bewölkt in der Höhe von 3500 ft

TAF: EDVK 230800Z 2309/2318 24010KT 9999 SCT035

Wetterbeobachtungen und Prognosen von mehr als 4000 Flughäfen (METAR und TAF Bericht).

Die verfügbaren Stationen werden durch gelbe und rote Markierungen auf der Karte dargestellt.

Führen Sie die Maus auf sie, um den Namen der Station zu sehen.

Darauf klicken, um die Beobachtung von Wetterbeobachtungen und Prognosen zu sehen.

Um die Karte zu ändern : klicken Sie auf den grünen Tasten mit einem schwarzen Kreuz Zum Vergrößern, auf den grünen Button mit einem Gedankenstrich zu verkleinern, oder auf die grünen Pfeile für benachbarte Karten.


METAR-TAF: